Langdon, Kansas
Current Conditions -  °F | °C
As of 11:55 PM on Monday 26 Jan 2015 (Local Time) from KPTT Reporting Station
Clear Clear  
Wind Chill:   Ceiling: Unl
Heat Index:   Visibility: 10mi
Dew Point:   Wind: 8mph
Humidity: 75%   Direction: 280°W
Pressure: 30.11"   Gusts: NA
Location:  37.8171°N, 98.3602°W
Report Text: KPTT 270555Z AUTO 28007KT 10SM CLR 04/00 A3011 RMK AO2
Loading
Personal Weather Stations






























Interactive Weather Map New forecast layout! Learn more

10-Day Weather Forecast

Advertisements
Track Severe Weather on mobile